createdAt,value
2017-03-17T00:00:46.145Z,23.42
2017-03-17T00:01:45.941Z,23.36
2017-03-17T00:02:46.259Z,23.4
2017-03-17T00:03:45.976Z,23.33
2017-03-17T00:04:46.004Z,23.35
2017-03-17T00:05:46.280Z,23.35
2017-03-17T00:06:46.369Z,23.28
2017-03-17T00:07:46.398Z,23.27
2017-03-17T00:08:46.427Z,23.23
2017-03-17T00:09:45.833Z,23.27
2017-03-17T00:10:46.737Z,23.28
2017-03-17T00:11:46.203Z,23.23
2017-03-17T00:12:46.531Z,23.23
2017-03-17T00:13:46.263Z,23.25
2017-03-17T00:14:46.596Z,23.22
2017-03-17T00:15:46.877Z,23.28
2017-03-17T00:16:46.022Z,23.23
2017-03-17T00:17:46.362Z,23.25
2017-03-17T00:18:46.708Z,23.16
2017-03-17T00:19:46.424Z,23.23
2017-03-17T00:20:46.137Z,23.17
2017-03-17T00:21:46.806Z,23.16
2017-03-17T00:22:46.509Z,23.09
2017-03-17T00:23:46.530Z,23.17
2017-03-17T00:24:46.565Z,23.22
2017-03-17T00:25:46.909Z,23.19
2017-03-17T00:26:46.305Z,23.2
2017-03-17T00:27:46.959Z,23.22
2017-03-17T00:28:46.674Z,23.05
2017-03-17T00:29:47.008Z,23.17
2017-03-17T00:30:47.045Z,23.12
2017-03-17T00:31:47.077Z,23.09
2017-03-17T00:32:47.102Z,23.12
2017-03-17T00:33:46.806Z,23.1
2017-03-17T00:34:47.180Z,23.09
2017-03-17T00:35:47.184Z,23.05
2017-03-17T00:36:46.590Z,23.1
2017-03-17T00:37:47.242Z,23.07
2017-03-17T00:38:47.275Z,23.09
2017-03-17T00:39:46.974Z,23
2017-03-17T00:40:47.008Z,23.07
2017-03-17T00:41:46.730Z,23.02
2017-03-17T00:42:47.065Z,23.02
2017-03-17T00:43:47.411Z,23.09
2017-03-17T00:44:46.816Z,23.01
2017-03-17T00:45:47.192Z,23.01
2017-03-17T00:46:47.493Z,23.02
2017-03-17T00:47:46.897Z,23.07
2017-03-17T00:48:47.542Z,23.04
2017-03-17T00:49:47.568Z,23.02
2017-03-17T00:50:47.293Z,23.01
2017-03-17T00:51:47.317Z,23.05
2017-03-17T00:52:47.665Z,22.97
2017-03-17T00:53:47.686Z,23.05
2017-03-17T00:54:47.427Z,22.91
2017-03-17T00:55:47.744Z,23.01
2017-03-17T00:56:47.773Z,23.07
2017-03-17T00:57:47.794Z,23.05
2017-03-17T00:58:47.512Z,23.01
2017-03-17T00:59:47.851Z,22.95
2017-03-17T01:00:47.880Z,22.94
2017-03-17T01:01:47.604Z,22.83
2017-03-17T01:02:47.317Z,22.94
2017-03-17T01:03:47.658Z,22.86
2017-03-17T01:04:47.999Z,22.83
2017-03-17T01:05:48.020Z,22.91
2017-03-17T01:06:47.990Z,22.9
2017-03-17T01:07:47.766Z,22.88
2017-03-17T01:08:48.110Z,22.82
2017-03-17T01:09:48.134Z,22.9
2017-03-17T01:10:48.160Z,22.9
2017-03-17T01:11:48.444Z,22.83
2017-03-17T01:12:48.221Z,22.86
2017-03-17T01:13:47.935Z,22.82
2017-03-17T01:14:47.958Z,22.83
2017-03-17T01:15:47.992Z,22.83
2017-03-17T01:16:48.576Z,22.91
2017-03-17T01:17:48.355Z,22.85
2017-03-17T01:18:48.386Z,22.86
2017-03-17T01:19:48.098Z,22.85
2017-03-17T01:20:48.444Z,22.83
2017-03-17T01:21:48.724Z,22.88
2017-03-17T01:22:48.489Z,22.83
2017-03-17T01:23:48.214Z,22.77
2017-03-17T01:24:48.242Z,22.88
2017-03-17T01:25:47.956Z,22.86
2017-03-17T01:26:48.851Z,22.77
2017-03-17T01:27:48.013Z,22.79
2017-03-17T01:28:48.353Z,22.8
2017-03-17T01:29:48.690Z,22.83
2017-03-17T01:30:48.711Z,22.77
2017-03-17T01:31:48.683Z,22.8
2017-03-17T01:32:48.777Z,22.75
2017-03-17T01:33:48.494Z,22.76
2017-03-17T01:34:48.206Z,22.77
2017-03-17T01:35:48.235Z,22.76
2017-03-17T01:36:49.136Z,22.75
2017-03-17T01:37:48.285Z,22.8
2017-03-17T01:38:48.630Z,22.75
2017-03-17T01:39:48.651Z,22.73
2017-03-17T01:40:48.999Z,22.7
2017-03-17T01:41:48.400Z,22.73
2017-03-17T01:42:48.736Z,22.73
2017-03-17T01:43:48.458Z,22.7
2017-03-17T01:44:48.798Z,22.72
2017-03-17T01:45:49.165Z,22.73
2017-03-17T01:46:48.540Z,22.73
2017-03-17T01:47:48.879Z,22.7
2017-03-17T01:48:49.215Z,22.8
2017-03-17T01:49:49.242Z,22.68
2017-03-17T01:50:49.275Z,22.72
2017-03-17T01:51:48.683Z,22.72
2017-03-17T01:52:48.703Z,22.62
2017-03-17T01:53:49.045Z,22.75
2017-03-17T01:54:49.069Z,22.75
2017-03-17T01:55:48.790Z,22.73
2017-03-17T01:56:49.442Z,22.7
2017-03-17T01:57:48.844Z,22.64
2017-03-17T01:58:49.189Z,22.61
2017-03-17T01:59:49.523Z,22.72
2017-03-17T02:00:49.239Z,22.68
2017-03-17T02:01:48.956Z,22.64
2017-03-17T02:02:49.600Z,22.75
2017-03-17T02:03:49.629Z,22.67
2017-03-17T02:04:49.349Z,22.68
2017-03-17T02:05:49.690Z,22.65
2017-03-17T02:06:49.716Z,22.68
2017-03-17T02:07:49.740Z,22.65
2017-03-17T02:08:49.772Z,22.64
2017-03-17T02:09:49.805Z,22.72
2017-03-17T02:10:49.834Z,22.58
2017-03-17T02:11:49.860Z,22.61
2017-03-17T02:12:49.896Z,22.64
2017-03-17T02:13:49.912Z,22.57
2017-03-17T02:14:49.938Z,22.62
2017-03-17T02:15:49.962Z,22.6
2017-03-17T02:16:49.998Z,22.64
2017-03-17T02:17:49.712Z,22.65
2017-03-17T02:18:49.761Z,22.65
2017-03-17T02:19:49.452Z,22.64
2017-03-17T02:20:49.790Z,22.55
2017-03-17T02:21:49.819Z,22.6
2017-03-17T02:22:50.096Z,22.6
2017-03-17T02:23:49.877Z,22.6
2017-03-17T02:24:49.905Z,22.58
2017-03-17T02:25:50.245Z,22.64
2017-03-17T02:26:50.267Z,22.61
2017-03-17T02:27:50.551Z,22.61
2017-03-17T02:28:50.328Z,22.61
2017-03-17T02:29:50.040Z,22.58
2017-03-17T02:30:49.757Z,22.61
2017-03-17T02:31:50.094Z,22.54
2017-03-17T02:32:50.687Z,22.61
2017-03-17T02:33:49.835Z,22.61
2017-03-17T02:34:50.181Z,22.67
2017-03-17T02:35:50.208Z,22.47
2017-03-17T02:36:50.250Z,22.51
2017-03-17T02:37:50.828Z,22.6
2017-03-17T02:38:50.291Z,22.47
2017-03-17T02:39:50.317Z,22.54
2017-03-17T02:40:50.658Z,22.52
2017-03-17T02:41:50.370Z,22.49
2017-03-17T02:42:50.984Z,22.49
2017-03-17T02:43:50.741Z,22.51
2017-03-17T02:44:50.773Z,22.52
2017-03-17T02:45:50.481Z,22.52
2017-03-17T02:46:50.507Z,22.51
2017-03-17T02:47:51.107Z,22.49
2017-03-17T02:48:50.260Z,22.52
2017-03-17T02:49:50.596Z,22.45
2017-03-17T02:50:50.301Z,22.52
2017-03-17T02:51:50.642Z,22.43
2017-03-17T02:52:50.937Z,22.47
2017-03-17T02:53:51.020Z,22.51
2017-03-17T02:54:50.420Z,22.55
2017-03-17T02:55:50.449Z,22.36
2017-03-17T02:56:50.785Z,22.47
2017-03-17T02:57:51.074Z,22.42
2017-03-17T02:58:50.847Z,22.4
2017-03-17T02:59:50.876Z,22.39
2017-03-17T03:00:51.209Z,22.36
2017-03-17T03:01:51.237Z,22.42
2017-03-17T03:02:51.511Z,22.36
2017-03-17T03:03:50.668Z,22.39
2017-03-17T03:04:50.996Z,22.37
2017-03-17T03:05:51.035Z,22.45
2017-03-17T03:06:51.373Z,22.37
2017-03-17T03:07:51.345Z,22.39
2017-03-17T03:08:51.115Z,22.35
2017-03-17T03:09:51.460Z,22.35
2017-03-17T03:10:50.865Z,22.37
2017-03-17T03:11:51.201Z,22.37
2017-03-17T03:12:51.483Z,22.4
2017-03-17T03:13:50.951Z,22.37
2017-03-17T03:14:51.596Z,22.39
2017-03-17T03:15:51.308Z,22.36
2017-03-17T03:16:51.337Z,22.37
2017-03-17T03:17:51.930Z,22.36
2017-03-17T03:18:51.744Z,22.33
2017-03-17T03:19:51.723Z,22.39
2017-03-17T03:20:51.760Z,22.36
2017-03-17T03:21:51.784Z,22.25
2017-03-17T03:22:52.070Z,22.36
2017-03-17T03:23:51.532Z,22.3
2017-03-17T03:24:51.904Z,22.36
2017-03-17T03:25:51.895Z,22.25
2017-03-17T03:26:51.305Z,22.35
2017-03-17T03:27:52.201Z,22.22
2017-03-17T03:28:51.988Z,22.25
2017-03-17T03:29:52.011Z,22.37
2017-03-17T03:30:51.723Z,22.31
2017-03-17T03:31:52.061Z,22.27
2017-03-17T03:32:51.476Z,22.27
2017-03-17T03:33:52.119Z,22.24
2017-03-17T03:34:52.142Z,22.28
2017-03-17T03:35:52.179Z,22.3
2017-03-17T03:36:52.196Z,22.28
2017-03-17T03:37:52.226Z,22.24
2017-03-17T03:38:52.254Z,22.25
2017-03-17T03:39:51.655Z,22.35
2017-03-17T03:40:51.995Z,22.27
2017-03-17T03:41:51.708Z,22.3
2017-03-17T03:42:52.365Z,22.27
2017-03-17T03:43:52.390Z,22.3
2017-03-17T03:44:51.795Z,22.22
2017-03-17T03:45:52.447Z,22.24
2017-03-17T03:46:52.475Z,22.28
2017-03-17T03:47:51.878Z,22.27
2017-03-17T03:48:51.902Z,22.28
2017-03-17T03:49:52.238Z,22.22
2017-03-17T03:50:51.958Z,22.22
2017-03-17T03:51:52.608Z,22.21
2017-03-17T03:52:52.017Z,22.18
2017-03-17T03:53:52.665Z,22.24
2017-03-17T03:54:52.682Z,22.17
2017-03-17T03:55:52.405Z,22.18
2017-03-17T03:56:52.742Z,22.21
2017-03-17T03:57:52.157Z,22.24
2017-03-17T03:58:52.812Z,22.2
2017-03-17T03:59:52.511Z,22.18
2017-03-17T04:00:52.855Z,22.15
2017-03-17T04:01:52.567Z,22.2
2017-03-17T04:02:52.608Z,22.17
2017-03-17T04:03:52.941Z,22.14
2017-03-17T04:04:52.966Z,22.2
2017-03-17T04:05:52.679Z,22.14
2017-03-17T04:06:52.708Z,22.14
2017-03-17T04:07:52.745Z,22.12
2017-03-17T04:08:53.326Z,22.12
2017-03-17T04:09:52.799Z,22.15
2017-03-17T04:10:53.137Z,22.12
2017-03-17T04:11:53.161Z,22.14
2017-03-17T04:12:53.192Z,22.12
2017-03-17T04:13:53.464Z,22.14
2017-03-17T04:14:52.924Z,22.18
2017-03-17T04:15:52.954Z,22.12
2017-03-17T04:16:53.304Z,22.2
2017-03-17T04:17:53.321Z,22.12
2017-03-17T04:18:53.609Z,22.12
2017-03-17T04:19:53.389Z,22.14
2017-03-17T04:20:53.097Z,22.14
2017-03-17T04:21:53.128Z,22.14
2017-03-17T04:22:53.462Z,22.1
2017-03-17T04:23:53.426Z,22.09
2017-03-17T04:24:52.889Z,22.09
2017-03-17T04:25:53.538Z,22.14
2017-03-17T04:26:53.252Z,22.07
2017-03-17T04:27:53.592Z,22.15
2017-03-17T04:28:53.876Z,22.06
2017-03-17T04:29:53.035Z,22.05
2017-03-17T04:30:53.678Z,22.06
2017-03-17T04:31:53.706Z,22.06
2017-03-17T04:32:53.423Z,22.07
2017-03-17T04:33:54.004Z,22.1
2017-03-17T04:34:53.160Z,22.1
2017-03-17T04:35:53.809Z,22.09
2017-03-17T04:36:53.523Z,22.1
2017-03-17T04:37:53.871Z,22.07
2017-03-17T04:38:54.147Z,22.09
2017-03-17T04:39:53.617Z,22.05
2017-03-17T04:40:53.629Z,22.14
2017-03-17T04:41:53.978Z,22.07
2017-03-17T04:42:53.696Z,22.03
2017-03-17T04:43:53.975Z,22.09
2017-03-17T04:44:53.750Z,22.05
2017-03-17T04:45:53.765Z,22.06
2017-03-17T04:46:54.109Z,22.07
2017-03-17T04:47:54.131Z,22.05
2017-03-17T04:48:54.099Z,22.03
2017-03-17T04:49:53.877Z,22
2017-03-17T04:50:54.204Z,22.03
2017-03-17T04:51:53.943Z,22.07
2017-03-17T04:52:53.972Z,21.96
2017-03-17T04:53:53.927Z,22.03
2017-03-17T04:54:54.328Z,22.05
2017-03-17T04:55:54.045Z,22.02
2017-03-17T04:56:54.070Z,22.09
2017-03-17T04:57:54.107Z,22.1
2017-03-17T04:58:54.687Z,22.05
2017-03-17T04:59:54.150Z,22.06
2017-03-17T05:00:54.493Z,22.05
2017-03-17T05:01:54.518Z,21.98
2017-03-17T05:02:54.559Z,22.1
2017-03-17T05:03:54.260Z,22.03
2017-03-17T05:04:54.283Z,22.09
2017-03-17T05:05:54.624Z,22.05
2017-03-17T05:06:54.653Z,22.02
2017-03-17T05:07:54.682Z,22.05
2017-03-17T05:08:54.714Z,22.02
2017-03-17T05:09:54.424Z,22.03
2017-03-17T05:10:54.452Z,21.94
2017-03-17T05:11:54.789Z,22
2017-03-17T05:12:54.503Z,22.05
2017-03-17T05:13:54.531Z,22
2017-03-17T05:14:54.560Z,22.05
2017-03-17T05:15:54.589Z,22.02
2017-03-17T05:16:54.618Z,21.94
2017-03-17T05:17:54.954Z,21.9
2017-03-17T05:18:54.978Z,21.9
2017-03-17T05:19:54.708Z,22.02
2017-03-17T05:20:55.036Z,22.03
2017-03-17T05:21:55.066Z,22.03
2017-03-17T05:22:54.778Z,22.05
2017-03-17T05:23:54.819Z,22
2017-03-17T05:24:55.135Z,22.05
2017-03-17T05:25:55.172Z,22.05
2017-03-17T05:26:54.581Z,22.1
2017-03-17T05:27:55.226Z,22.15
2017-03-17T05:28:55.258Z,21.98
2017-03-17T05:29:54.971Z,22.03
2017-03-17T05:30:54.996Z,22.05
2017-03-17T05:31:55.012Z,22.06
2017-03-17T05:32:55.050Z,22.07
2017-03-17T05:33:55.075Z,22.06
2017-03-17T05:34:55.108Z,22.09
2017-03-17T05:35:55.438Z,22.05
2017-03-17T05:36:55.153Z,22.14
2017-03-17T05:37:55.529Z,22.1
2017-03-17T05:38:55.520Z,22.09
2017-03-17T05:39:55.551Z,22.12
2017-03-17T05:40:54.955Z,22.18
2017-03-17T05:41:55.605Z,22.15
2017-03-17T05:42:55.634Z,22.15
2017-03-17T05:43:55.663Z,22.15
2017-03-17T05:44:55.674Z,22.24
2017-03-17T05:45:55.400Z,22.24
2017-03-17T05:46:55.419Z,22.24
2017-03-17T05:47:55.453Z,22.3
2017-03-17T05:48:55.490Z,22.25
2017-03-17T05:49:56.124Z,22.3
2017-03-17T05:50:55.856Z,22.27
2017-03-17T05:51:55.569Z,22.35
2017-03-17T05:52:55.602Z,22.39
2017-03-17T05:53:55.622Z,22.39
2017-03-17T05:54:55.891Z,22.4
2017-03-17T05:55:55.678Z,22.36
2017-03-17T05:56:56.016Z,22.43
2017-03-17T05:57:55.721Z,22.39
2017-03-17T05:58:55.765Z,22.33
2017-03-17T05:59:56.345Z,22.36
2017-03-17T06:00:56.135Z,22.43
2017-03-17T06:01:55.837Z,22.49
2017-03-17T06:02:55.860Z,22.52
2017-03-17T06:03:56.206Z,22.61
2017-03-17T06:04:56.544Z,22.55
2017-03-17T06:05:55.947Z,22.52
2017-03-17T06:06:55.972Z,22.51
2017-03-17T06:07:56.001Z,22.61
2017-03-17T06:08:56.035Z,22.61
2017-03-17T06:09:56.313Z,22.61
2017-03-17T06:10:56.395Z,22.62
2017-03-17T06:11:56.420Z,22.61
2017-03-17T06:12:56.139Z,22.73
2017-03-17T06:13:55.858Z,22.67
2017-03-17T06:14:56.522Z,22.73
2017-03-17T06:15:56.527Z,22.7
2017-03-17T06:16:56.557Z,22.77
2017-03-17T06:17:56.579Z,22.75
2017-03-17T06:18:56.617Z,22.79
2017-03-17T06:19:56.894Z,22.77
2017-03-17T06:20:56.663Z,22.76
2017-03-17T06:21:56.392Z,22.73
2017-03-17T06:22:56.410Z,22.73
2017-03-17T06:23:56.431Z,22.76
2017-03-17T06:24:57.079Z,22.82
2017-03-17T06:25:56.490Z,22.79
2017-03-17T06:26:56.515Z,22.79
2017-03-17T06:27:56.860Z,22.85
2017-03-17T06:28:56.883Z,22.9
2017-03-17T06:29:56.542Z,22.83
2017-03-17T06:30:56.318Z,22.9
2017-03-17T06:31:56.345Z,22.86
2017-03-17T06:32:56.376Z,22.86
2017-03-17T06:33:56.714Z,22.85
2017-03-17T06:34:57.353Z,22.88
2017-03-17T06:35:56.762Z,22.86
2017-03-17T06:36:56.788Z,22.85
2017-03-17T06:37:57.128Z,22.9
2017-03-17T06:38:56.862Z,22.88
2017-03-17T06:39:57.497Z,22.88
2017-03-17T06:40:56.905Z,22.86
2017-03-17T06:41:57.252Z,22.86
2017-03-17T06:42:57.267Z,22.86
2017-03-17T06:43:57.306Z,22.94
2017-03-17T06:44:57.621Z,22.9
2017-03-17T06:45:57.038Z,22.86
2017-03-17T06:46:56.755Z,22.94
2017-03-17T06:47:57.405Z,22.88
2017-03-17T06:48:57.434Z,22.86
2017-03-17T06:49:57.396Z,22.91
2017-03-17T06:50:56.866Z,22.92
2017-03-17T06:51:56.896Z,22.95
2017-03-17T06:52:57.233Z,22.83
2017-03-17T06:53:57.261Z,22.83
2017-03-17T06:54:57.849Z,22.91
2017-03-17T06:55:57.627Z,22.92
2017-03-17T06:56:57.655Z,22.95
2017-03-17T06:57:57.685Z,22.91
2017-03-17T06:58:57.716Z,22.9
2017-03-17T06:59:57.989Z,22.9
2017-03-17T07:00:57.763Z,22.88
2017-03-17T07:01:57.787Z,22.88
2017-03-17T07:02:57.821Z,22.86
2017-03-17T07:03:57.853Z,22.9
2017-03-17T07:04:57.565Z,22.86
2017-03-17T07:05:57.593Z,22.88
2017-03-17T07:06:57.930Z,22.92
2017-03-17T07:07:57.959Z,22.88
2017-03-17T07:08:57.997Z,22.97
2017-03-17T07:09:57.705Z,22.92
2017-03-17T07:10:58.038Z,22.97
2017-03-17T07:11:57.754Z,22.91
2017-03-17T07:12:58.091Z,23
2017-03-17T07:13:57.804Z,22.98
2017-03-17T07:14:58.161Z,23.01
2017-03-17T07:15:58.182Z,23.02
2017-03-17T07:16:57.579Z,22.97
2017-03-17T07:17:58.239Z,23.07
2017-03-17T07:18:58.260Z,23.13
2017-03-17T07:19:58.301Z,23.5
2017-03-17T07:20:58.321Z,23.8
2017-03-17T07:21:58.337Z,24.22
2017-03-17T07:22:58.372Z,24.52
2017-03-17T07:23:58.405Z,24.9
2017-03-17T07:24:58.112Z,25.23
2017-03-17T07:25:58.141Z,25.55
2017-03-17T07:26:58.170Z,25.75
2017-03-17T07:27:58.516Z,26.05
2017-03-17T07:28:57.904Z,26.3
2017-03-17T07:29:58.569Z,26.52
2017-03-17T07:30:58.610Z,26.73
2017-03-17T07:31:58.617Z,26.87
2017-03-17T07:32:58.337Z,27.13
2017-03-17T07:33:58.688Z,27.18
2017-03-17T07:34:58.406Z,27.32
2017-03-17T07:35:58.729Z,27.41
2017-03-17T07:36:58.454Z,27.6
2017-03-17T07:37:58.808Z,27.66
2017-03-17T07:38:58.820Z,27.78
2017-03-17T07:39:58.545Z,27.9
2017-03-17T07:40:58.881Z,27.9
2017-03-17T07:41:58.910Z,27.72
2017-03-17T07:42:58.943Z,27.66
2017-03-17T07:43:58.969Z,27.4
2017-03-17T07:44:58.688Z,27.17
2017-03-17T07:45:59.008Z,27.02
2017-03-17T07:46:58.429Z,26.8
2017-03-17T07:47:58.774Z,26.52
2017-03-17T07:48:58.799Z,26.29
2017-03-17T07:49:59.152Z,26.07
2017-03-17T07:50:59.156Z,25.97
2017-03-17T07:51:59.194Z,25.9
2017-03-17T07:52:59.226Z,25.73
2017-03-17T07:53:58.951Z,25.58
2017-03-17T07:54:58.988Z,25.6
2017-03-17T07:55:59.269Z,25.47
2017-03-17T07:56:58.713Z,25.38
2017-03-17T07:57:59.370Z,25.43
2017-03-17T07:58:59.407Z,25.35
2017-03-17T07:59:59.124Z,25.21
2017-03-17T08:00:59.124Z,25.24
2017-03-17T08:01:59.185Z,25.2
2017-03-17T08:02:59.512Z,25.08
2017-03-17T08:03:59.223Z,25.14
2017-03-17T08:04:58.948Z,25.06
2017-03-17T08:05:59.537Z,24.93
2017-03-17T08:06:59.629Z,24.91
2017-03-17T08:07:59.669Z,24.98
2017-03-17T08:08:59.379Z,24.85
2017-03-17T08:09:59.715Z,24.81
2017-03-17T08:10:59.996Z,24.87
2017-03-17T08:11:59.142Z,24.77
2017-03-17T08:12:59.487Z,24.78
2017-03-17T08:13:59.831Z,24.73
2017-03-17T08:14:59.545Z,24.71
2017-03-17T08:15:59.555Z,24.69
2017-03-17T08:16:59.915Z,24.61
2017-03-17T08:17:59.938Z,24.57
2017-03-17T08:18:59.975Z,24.68
2017-03-17T08:19:59.999Z,24.55
2017-03-17T08:21:00.012Z,24.53
2017-03-17T08:22:00.061Z,24.6
2017-03-17T08:23:00.086Z,24.57
2017-03-17T08:24:00.133Z,24.61
2017-03-17T08:24:59.832Z,24.55
2017-03-17T08:25:59.795Z,24.45
2017-03-17T08:27:00.211Z,24.55
2017-03-17T08:27:59.916Z,24.5
2017-03-17T08:29:00.254Z,24.46
2017-03-17T08:29:59.975Z,24.42
2017-03-17T08:31:00.567Z,24.5
2017-03-17T08:32:00.028Z,24.42
2017-03-17T08:33:00.061Z,24.45
2017-03-17T08:34:00.079Z,24.45
2017-03-17T08:35:00.430Z,24.43
2017-03-17T08:36:00.703Z,24.43
2017-03-17T08:37:00.472Z,24.4
2017-03-17T08:38:00.201Z,24.42
2017-03-17T08:39:00.226Z,24.4
2017-03-17T08:40:00.565Z,24.46
2017-03-17T08:41:00.278Z,24.43
2017-03-17T08:42:00.000Z,24.35
2017-03-17T08:43:00.648Z,24.45
2017-03-17T08:44:00.369Z,24.4
2017-03-17T08:45:00.702Z,24.34
2017-03-17T08:46:00.737Z,24.35
2017-03-17T08:47:00.764Z,24.34
2017-03-17T08:48:00.788Z,24.34
2017-03-17T08:49:00.821Z,24.3
2017-03-17T08:50:00.846Z,24.22
2017-03-17T08:51:00.566Z,24.27
2017-03-17T08:52:00.904Z,24.28
2017-03-17T08:53:00.961Z,24.28
2017-03-17T08:54:00.965Z,24.21
2017-03-17T08:55:00.983Z,24.28
2017-03-17T08:56:00.703Z,24.39
2017-03-17T08:57:01.048Z,24.49
2017-03-17T08:58:00.777Z,24.58
2017-03-17T08:59:01.102Z,24.55
2017-03-17T09:00:00.818Z,24.8
2017-03-17T09:01:00.843Z,24.87
2017-03-17T09:02:00.559Z,25.03
2017-03-17T09:03:01.218Z,25.09
2017-03-17T09:04:00.930Z,25.21
2017-03-17T09:05:00.649Z,25.32
2017-03-17T09:06:00.674Z,25.51
2017-03-17T09:07:01.327Z,25.64
2017-03-17T09:08:01.356Z,25.72
2017-03-17T09:09:01.073Z,25.79
2017-03-17T09:10:01.418Z,25.95
2017-03-17T09:11:01.443Z,25.9
2017-03-17T09:12:01.470Z,26.01
2017-03-17T09:13:01.180Z,25.92
2017-03-17T09:14:01.212Z,25.92
2017-03-17T09:15:01.557Z,25.88
2017-03-17T09:16:01.279Z,25.79
2017-03-17T09:17:01.299Z,25.65
2017-03-17T09:18:01.639Z,25.57
2017-03-17T09:19:01.664Z,25.45
2017-03-17T09:20:01.077Z,25.39
2017-03-17T09:21:01.102Z,25.24
2017-03-17T09:22:01.751Z,25.17
2017-03-17T09:23:01.784Z,25.09
2017-03-17T09:24:01.806Z,25.08
2017-03-17T09:25:01.221Z,25.06
2017-03-17T09:26:01.554Z,24.91
2017-03-17T09:27:01.583Z,24.9
2017-03-17T09:28:01.619Z,24.8
2017-03-17T09:29:01.956Z,24.88
2017-03-17T09:30:01.677Z,24.9
2017-03-17T09:31:01.706Z,24.78
2017-03-17T09:32:01.424Z,24.77
2017-03-17T09:33:02.064Z,24.78
2017-03-17T09:34:02.097Z,24.76
2017-03-17T09:35:02.121Z,24.71
2017-03-17T09:36:02.152Z,24.67
2017-03-17T09:37:01.875Z,24.67
2017-03-17T09:38:02.212Z,24.67
2017-03-17T09:39:02.243Z,24.64
2017-03-17T09:40:01.648Z,24.47
2017-03-17T09:41:02.028Z,24.6
2017-03-17T09:42:02.267Z,24.5
2017-03-17T09:43:02.075Z,24.57
2017-03-17T09:44:02.067Z,24.5
2017-03-17T09:45:02.420Z,24.47
2017-03-17T09:46:02.439Z,24.42
2017-03-17T09:47:02.410Z,24.37
2017-03-17T09:48:02.175Z,24.35
2017-03-17T09:49:02.216Z,24.34
2017-03-17T09:50:01.933Z,24.25
2017-03-17T09:51:01.958Z,24.27
2017-03-17T09:52:02.870Z,24.32
2017-03-17T09:53:02.639Z,24.22
2017-03-17T09:54:02.667Z,24.18
2017-03-17T09:55:02.693Z,24.13
2017-03-17T09:56:02.416Z,24.1
2017-03-17T09:57:02.374Z,24.06
2017-03-17T09:58:02.154Z,24.12
2017-03-17T09:59:02.495Z,24.05
2017-03-17T10:00:02.527Z,24.02
2017-03-17T10:01:02.550Z,24
2017-03-17T10:02:02.837Z,23.93
2017-03-17T10:03:02.615Z,23.97
2017-03-17T10:04:02.331Z,23.93
2017-03-17T10:05:02.672Z,23.94
2017-03-17T10:06:02.385Z,23.9
2017-03-17T10:07:02.990Z,23.88
2017-03-17T10:08:03.071Z,23.8
2017-03-17T10:09:02.791Z,23.94
2017-03-17T10:10:02.816Z,23.91
2017-03-17T10:11:03.161Z,23.9
2017-03-17T10:12:03.433Z,23.9
2017-03-17T10:13:03.211Z,23.84
2017-03-17T10:14:03.240Z,23.85
2017-03-17T10:15:03.270Z,23.85
2017-03-17T10:16:03.296Z,23.87
2017-03-17T10:17:03.260Z,23.93
2017-03-17T10:18:03.043Z,23.88
2017-03-17T10:19:03.071Z,23.84
2017-03-17T10:20:03.419Z,23.79
2017-03-17T10:21:03.464Z,23.79
2017-03-17T10:22:03.403Z,23.78
2017-03-17T10:23:03.188Z,23.72
2017-03-17T10:24:03.215Z,23.7
2017-03-17T10:25:03.548Z,23.8
2017-03-17T10:26:03.264Z,23.73
2017-03-17T10:27:03.548Z,23.68
2017-03-17T10:28:03.018Z,23.75
2017-03-17T10:29:03.667Z,23.73
2017-03-17T10:30:03.695Z,23.7
2017-03-17T10:31:03.405Z,23.68
2017-03-17T10:32:03.698Z,23.65
2017-03-17T10:33:03.466Z,23.68
2017-03-17T10:34:03.490Z,23.61
2017-03-17T10:35:03.203Z,23.6
2017-03-17T10:36:03.238Z,23.55
2017-03-17T10:37:03.831Z,23.61
2017-03-17T10:38:03.604Z,23.58
2017-03-17T10:39:03.666Z,23.6
2017-03-17T10:40:03.666Z,23.54
2017-03-17T10:41:03.380Z,23.54
2017-03-17T10:42:03.685Z,23.55
2017-03-17T10:43:03.437Z,23.55
2017-03-17T10:44:03.466Z,23.57
2017-03-17T10:45:03.495Z,23.55
2017-03-17T10:46:04.144Z,23.47
2017-03-17T10:47:04.117Z,23.5
2017-03-17T10:48:04.206Z,23.5
2017-03-17T10:49:03.940Z,23.48
2017-03-17T10:50:04.263Z,23.46
2017-03-17T10:51:04.283Z,23.48
2017-03-17T10:52:04.569Z,23.4
2017-03-17T10:53:04.347Z,23.43
2017-03-17T10:54:04.375Z,23.36
2017-03-17T10:55:03.774Z,23.39
2017-03-17T10:56:04.143Z,23.4
2017-03-17T10:57:04.080Z,23.42
2017-03-17T10:58:03.861Z,23.42
2017-03-17T10:59:04.198Z,23.4
2017-03-17T11:00:04.226Z,23.43
2017-03-17T11:01:04.260Z,23.5
2017-03-17T11:02:04.531Z,23.46
2017-03-17T11:03:04.349Z,23.39
2017-03-17T11:04:04.342Z,23.42
2017-03-17T11:05:04.062Z,23.48
2017-03-17T11:06:04.714Z,23.43
2017-03-17T11:07:05.010Z,23.46
2017-03-17T11:08:04.770Z,23.42
2017-03-17T11:09:04.810Z,23.4
2017-03-17T11:10:04.513Z,23.46
2017-03-17T11:11:04.847Z,23.57
2017-03-17T11:12:04.816Z,23.46
2017-03-17T11:13:04.288Z,23.53
2017-03-17T11:14:04.945Z,23.5
2017-03-17T11:15:04.346Z,23.53
2017-03-17T11:16:04.682Z,23.51
2017-03-17T11:17:04.648Z,23.48
2017-03-17T11:18:04.429Z,23.55
2017-03-17T11:19:04.457Z,23.57
2017-03-17T11:20:04.786Z,23.54
2017-03-17T11:21:04.823Z,23.46
2017-03-17T11:22:04.788Z,23.54
2017-03-17T11:23:05.189Z,23.47
2017-03-17T11:24:05.222Z,23.53
2017-03-17T11:25:05.252Z,23.51
2017-03-17T11:26:05.279Z,23.47
2017-03-17T11:27:05.551Z,23.47
2017-03-17T11:28:05.019Z,23.47
2017-03-17T11:29:05.053Z,23.5
2017-03-17T11:30:05.390Z,23.46
2017-03-17T11:31:05.417Z,23.47
2017-03-17T11:32:05.075Z,23.43
2017-03-17T11:33:05.161Z,23.46
2017-03-17T11:34:05.500Z,23.42
2017-03-17T11:35:05.213Z,23.42
2017-03-17T11:36:05.248Z,23.36
2017-03-17T11:37:05.842Z,23.4
2017-03-17T11:38:05.295Z,23.39
2017-03-17T11:39:05.012Z,23.39
2017-03-17T11:40:05.364Z,23.38
2017-03-17T11:41:05.391Z,23.38
2017-03-17T11:42:05.111Z,23.36
2017-03-17T11:43:05.760Z,23.35
2017-03-17T11:44:05.798Z,23.35
2017-03-17T11:45:05.817Z,23.39
2017-03-17T11:46:05.846Z,23.4
2017-03-17T11:47:05.251Z,23.39
2017-03-17T11:48:05.899Z,23.36
2017-03-17T11:49:05.612Z,23.39
2017-03-17T11:50:05.958Z,23.5
2017-03-17T11:51:05.669Z,23.4
2017-03-17T11:52:05.390Z,23.46
2017-03-17T11:53:05.735Z,23.5
2017-03-17T11:54:05.764Z,23.43
2017-03-17T11:55:05.786Z,23.46
2017-03-17T11:56:05.813Z,23.47
2017-03-17T11:57:05.532Z,23.53
2017-03-17T11:58:05.871Z,23.43
2017-03-17T11:59:06.252Z,23.43
2017-03-17T12:00:06.235Z,23.53
2017-03-17T12:01:05.957Z,23.46
2017-03-17T12:02:05.981Z,23.48
2017-03-17T12:03:06.318Z,23.5
2017-03-17T12:04:06.042Z,23.5
2017-03-17T12:05:05.760Z,23.47
2017-03-17T12:06:06.412Z,23.42
2017-03-17T12:07:06.438Z,23.42
2017-03-17T12:08:06.152Z,23.46
2017-03-17T12:09:06.187Z,23.43
2017-03-17T12:10:06.524Z,23.46
2017-03-17T12:11:05.920Z,23.36
2017-03-17T12:12:06.270Z,23.38
2017-03-17T12:13:05.979Z,23.33
2017-03-17T12:14:06.319Z,23.39
2017-03-17T12:15:06.380Z,23.39
2017-03-17T12:16:06.379Z,23.39
2017-03-17T12:17:06.409Z,23.47
2017-03-17T12:18:06.741Z,23.42
2017-03-17T12:19:06.776Z,23.39
2017-03-17T12:20:06.495Z,23.38
2017-03-17T12:21:06.837Z,23.42
2017-03-17T12:22:06.862Z,23.42
2017-03-17T12:23:06.573Z,23.46
2017-03-17T12:24:06.918Z,23.47
2017-03-17T12:25:06.322Z,23.36
2017-03-17T12:26:06.972Z,23.43
2017-03-17T12:27:06.688Z,23.38
2017-03-17T12:28:07.038Z,23.38
2017-03-17T12:29:06.439Z,23.32
2017-03-17T12:30:07.088Z,23.38
2017-03-17T12:31:06.496Z,23.32
2017-03-17T12:32:07.141Z,23.2
2017-03-17T12:33:07.178Z,23.23
2017-03-17T12:34:07.211Z,23.19
2017-03-17T12:35:06.916Z,23.19
2017-03-17T12:36:07.265Z,23.17
2017-03-17T12:37:06.973Z,23.19
2017-03-17T12:38:07.006Z,23.15
2017-03-17T12:39:07.346Z,23.12
2017-03-17T12:40:07.374Z,23.1
2017-03-17T12:41:07.119Z,23.1
2017-03-17T12:42:07.424Z,23.15
2017-03-17T12:43:07.150Z,23.19
2017-03-17T12:44:06.858Z,23.1
2017-03-17T12:45:07.519Z,23.2
2017-03-17T12:46:07.231Z,23.2
2017-03-17T12:47:07.572Z,23.2
2017-03-17T12:48:07.290Z,23.2
2017-03-17T12:49:07.322Z,23.27
2017-03-17T12:50:07.656Z,23.33
2017-03-17T12:51:07.686Z,23.39
2017-03-17T12:52:07.397Z,23.53
2017-03-17T12:53:07.741Z,23.55
2017-03-17T12:54:07.459Z,23.75
2017-03-17T12:55:07.483Z,23.75
2017-03-17T12:56:07.821Z,23.9
2017-03-17T12:57:07.900Z,23.91
2017-03-17T12:58:07.894Z,23.95